Main page
METAR-TAF:

METAR-TAF

Airports :

Cornwall Airport Newquay

Newquay Cornwall, England

latitude: 50-26N, longitude: 005-00W, elevation: 119 m

Current weather observation

The report was made 2 hours and 45 minutes ago, at 19:50 UTC
Wind 16 kt from the West
Temperature 13°C
Humidity 72%
Pressure 1020 hPa
Visibility 10 km or more
Scattered clouds at a height of 2800 ft

METAR: EGHQ 211950Z 27016KT 9999 SCT028 13/08 Q1020

Time: 23:35 (22:35 UTC)

Forecast

The report was made 5 hours and 31 minutes ago, at 17:04 UTC
Forecast valid from 21 at 18 UTC to 21 at 21 UTC
Wind 18 kt from the West with gusts up to 28 kt
Visibility 10 km or more
Scattered clouds at a height of 2000 ft
Probability 30% :
Temporary
from 21 at 18 UTC to 21 at 21 UTC
Visibility: 7000 m
rain showers

TAF: EGHQ 211704Z 2118/2121 28018G28KT 9999 SCT020 PROB30 TEMPO 2118/2121 7000 SHRA

Weather observations and forecasts of more than 4000 airports (METAR and TAF reports).

The available stations are represented by yellow and red dots on the map.

Hover mouse over dot to see the name of the station.

Then click to see weather observations and forecasts.

To change the map : click on the green buttons with a black cross to zoom in, on the green button with a dash to zoom out, or on the green arrows for adjacent maps.


METAR-TAF: